Weather at Ameland Airfield

Public forecast

Using degrees Celsius for public forecast. Weather courtesy of forecast.io.

Closest aviation weather report (METAR) to Ameland Airfield

Closest report is Leeuwarden Air Base, 13.8 nm (25.6 km) SSE.

2022/12/07 22:55 (retrieved 19 minutes ago)

EHLW 072255Z AUTO 25007KT 9999 OVC100 03/01 Q1008 BLU

Closest aviation forecast (TAF) to Ameland Airfield

Closest forecast is Leeuwarden Air Base, 13.8 nm (25.6 km) SSE.

2022/12/07 22:09 (retrieved 1 hour ago)

TAF TAF EHLW 072104Z 0722/0810 27007KT 9999 SCT020 BKN030 TEMPO 0722/0810 32010G25KT 2000 SHRASN SHRAGS FEW003 SCT005 SCT015CB